Time;durP1;ratioP1;P1;durP2;ratioP2;P2;SDS_P1;SDS_P2;PMS_P1;PMS_P2;Temp;Humidity;BMP_temperature;BMP_pressure;BME280_temperature;BME280_humidity;BME280_pressure;Samples;Min_cycle;Max_cycle;Signal;HPM_P1;HPM_P2
2023/10/21 00:01:42;;;;;;;1.25;0.50;;;11.30;99.90;;;;;;4738973;30;20052;-85
2023/10/21 00:04:09;;;;;;;2.08;0.80;;;11.30;99.90;;;;;;4758176;30;20052;-86
2023/10/21 00:06:36;;;;;;;1.63;0.60;;;11.30;99.90;;;;;;4741215;30;20059;-85
2023/10/21 00:09:03;;;;;;;1.33;0.60;;;11.30;99.90;;;;;;4764852;30;20048;-86
2023/10/21 00:11:31;;;;;;;1.30;0.60;;;11.30;99.90;;;;;;4780167;29;20055;-86
2023/10/21 00:13:58;;;;;;;2.35;0.75;;;11.30;99.90;;;;;;4736255;30;20065;-86
2023/10/21 00:16:25;;;;;;;1.45;0.50;;;11.30;99.90;;;;;;4739853;30;20148;-85
2023/10/21 00:18:52;;;;;;;1.35;0.88;;;11.30;99.90;;;;;;4736087;30;20056;-86
2023/10/21 00:21:19;;;;;;;0.85;0.45;;;11.20;99.90;;;;;;4741552;30;20045;-85
2023/10/21 00:23:46;;;;;;;1.15;0.40;;;11.20;99.90;;;;;;4765593;30;20051;-86
2023/10/21 00:26:16;;;;;;;1.30;0.40;;;11.20;99.90;;;;;;4727982;30;20142;-86
2023/10/21 00:28:49;;;;;;;1.75;0.40;;;11.20;99.90;;;;;;4744112;30;20065;-86
2023/10/21 00:31:16;;;;;;;1.15;0.50;;;11.10;99.90;;;;;;4732207;30;20053;-86
2023/10/21 00:33:43;;;;;;;1.02;0.50;;;11.10;99.90;;;;;;4734989;30;20068;-86
2023/10/21 00:36:10;;;;;;;1.35;0.50;;;11.10;99.90;;;;;;4758408;30;20136;-86
2023/10/21 00:38:37;;;;;;;1.30;0.50;;;11.10;99.90;;;;;;4746691;30;20044;-86
2023/10/21 00:41:04;;;;;;;1.15;0.50;;;11.10;99.90;;;;;;4720252;30;20078;-86
2023/10/21 00:43:39;;;;;;;2.58;0.50;;;11.10;99.90;;;;;;4714553;30;20518;-86
2023/10/21 00:46:19;;;;;;;1.90;0.50;;;11.10;99.90;;;;;;4749869;30;20553;-86
2023/10/21 00:48:47;;;;;;;1.55;0.60;;;11.20;99.90;;;;;;4740458;30;20132;-86
2023/10/21 00:51:15;;;;;;;1.63;0.70;;;11.20;99.90;;;;;;4740378;30;20044;-86
2023/10/21 00:53:43;;;;;;;1.60;0.50;;;11.20;99.90;;;;;;4728787;30;20111;-86
2023/10/21 00:56:10;;;;;;;1.58;0.55;;;11.30;99.90;;;;;;4743343;30;20061;-86
2023/10/21 00:58:38;;;;;;;0.73;0.30;;;11.40;99.90;;;;;;4722833;30;20121;-86
2023/10/21 01:01:07;;;;;;;1.67;0.70;;;11.50;99.90;;;;;;4725414;30;20116;-85
2023/10/21 01:03:36;;;;;;;1.10;0.50;;;11.50;99.90;;;;;;4744813;30;20056;-86
2023/10/21 01:06:04;;;;;;;1.52;0.50;;;11.60;99.90;;;;;;4737413;30;20083;-86
2023/10/21 01:08:42;;;;;;;1.40;0.52;;;11.60;99.90;;;;;;4742684;30;20064;-86
2023/10/21 01:11:10;;;;;;;1.30;0.50;;;11.70;99.90;;;;;;4753574;30;20072;-86
2023/10/21 01:13:37;;;;;;;3.08;0.60;;;11.70;99.90;;;;;;4716296;30;20056;-86
2023/10/21 01:16:05;;;;;;;1.55;0.52;;;11.70;99.90;;;;;;4729628;30;20052;-86
2023/10/21 01:18:33;;;;;;;1.13;0.45;;;11.60;99.90;;;;;;4746763;30;20139;-86
2023/10/21 01:21:02;;;;;;;1.30;0.52;;;11.70;99.90;;;;;;4749123;30;20502;-86
2023/10/21 01:23:30;;;;;;;0.73;0.40;;;11.70;99.90;;;;;;4722010;30;20107;-86
2023/10/21 01:25:57;;;;;;;0.60;0.40;;;11.70;99.90;;;;;;4740048;30;20052;-85
2023/10/21 01:28:25;;;;;;;1.60;0.60;;;11.80;99.90;;;;;;4722806;30;20060;-86
2023/10/21 01:30:52;;;;;;;1.30;0.50;;;11.80;99.90;;;;;;4731110;30;20118;-85
2023/10/21 01:33:19;;;;;;;1.42;0.70;;;11.90;99.90;;;;;;4740927;30;20509;-86
2023/10/21 01:35:47;;;;;;;2.70;0.63;;;11.90;99.90;;;;;;4733646;30;20056;-86
2023/10/21 01:38:18;;;;;;;1.33;0.60;;;11.90;99.90;;;;;;4728590;30;20079;-86
2023/10/21 01:40:46;;;;;;;2.45;0.80;;;12.00;99.90;;;;;;4722800;30;20083;-86
2023/10/21 01:43:13;;;;;;;0.90;0.50;;;12.00;99.90;;;;;;4734620;30;20053;-86
2023/10/21 01:45:40;;;;;;;1.77;0.50;;;12.00;99.90;;;;;;4741904;30;20091;-86
2023/10/21 01:48:08;;;;;;;1.45;0.50;;;12.00;99.90;;;;;;4721588;30;20063;-86
2023/10/21 01:50:36;;;;;;;2.22;0.50;;;12.10;99.90;;;;;;4740390;30;20049;-86
2023/10/21 01:53:05;;;;;;;1.25;0.50;;;12.10;99.90;;;;;;4734648;30;20052;-86
2023/10/21 01:55:33;;;;;;;1.55;0.47;;;12.10;99.90;;;;;;4737784;30;20048;-86
2023/10/21 01:58:01;;;;;;;1.33;0.60;;;12.10;99.90;;;;;;4732301;30;20107;-86
2023/10/21 02:00:28;;;;;;;2.72;0.50;;;12.10;99.90;;;;;;4728214;30;20054;-86
2023/10/21 02:02:57;;;;;;;0.93;0.40;;;12.10;99.90;;;;;;4730711;30;20426;-86
2023/10/21 02:05:25;;;;;;;0.60;0.40;;;12.00;99.90;;;;;;4747600;30;20053;-86
2023/10/21 02:07:53;;;;;;;2.15;0.40;;;12.00;99.90;;;;;;4724693;30;20068;-86
2023/10/21 02:10:21;;;;;;;1.33;0.40;;;11.90;99.90;;;;;;4729446;30;20057;-85
2023/10/21 02:12:48;;;;;;;0.77;0.40;;;11.80;99.90;;;;;;4731277;30;20146;-86
2023/10/21 02:15:15;;;;;;;1.98;0.50;;;11.80;99.90;;;;;;4745677;30;20145;-86
2023/10/21 02:17:44;;;;;;;1.70;0.50;;;11.80;99.90;;;;;;4733931;30;20060;-86
2023/10/21 02:20:14;;;;;;;1.35;0.50;;;11.70;99.90;;;;;;4762275;30;20052;-86
2023/10/21 02:22:42;;;;;;;2.35;0.80;;;11.70;99.90;;;;;;4737357;30;20052;-86
2023/10/21 02:25:16;;;;;;;1.10;0.50;;;11.70;99.90;;;;;;4776200;29;20055;-86
2023/10/21 02:27:44;;;;;;;1.17;0.55;;;11.70;99.90;;;;;;4768280;30;20081;-86
2023/10/21 02:30:14;;;;;;;1.20;0.40;;;11.60;99.90;;;;;;4757560;30;20048;-86
2023/10/21 02:32:45;;;;;;;2.35;0.50;;;11.60;99.90;;;;;;4737362;30;20129;-86
2023/10/21 02:35:13;;;;;;;1.83;0.50;;;11.60;99.90;;;;;;4736424;30;20071;-85
2023/10/21 02:37:41;;;;;;;1.83;0.80;;;11.60;99.90;;;;;;4761549;30;20045;-85
2023/10/21 02:40:09;;;;;;;1.90;0.50;;;11.60;99.90;;;;;;4754153;30;20049;-85
2023/10/21 02:42:37;;;;;;;2.10;0.50;;;11.60;99.90;;;;;;4751765;30;20076;-85
2023/10/21 02:45:05;;;;;;;2.55;0.50;;;11.70;99.90;;;;;;4770001;30;20489;-86
2023/10/21 02:47:34;;;;;;;1.73;0.60;;;11.70;99.90;;;;;;4758575;30;20106;-86
2023/10/21 02:50:01;;;;;;;3.15;0.60;;;11.70;99.90;;;;;;4773615;30;20497;-86
2023/10/21 02:52:28;;;;;;;1.52;0.50;;;11.70;99.90;;;;;;4768091;30;20071;-85
2023/10/21 02:54:55;;;;;;;1.83;0.60;;;11.70;99.90;;;;;;4742716;30;20144;-86
2023/10/21 02:57:23;;;;;;;3.17;0.63;;;11.80;99.90;;;;;;4744651;30;20064;-86
2023/10/21 02:59:50;;;;;;;1.67;1.10;;;11.80;99.90;;;;;;4756358;30;20052;-86
2023/10/21 03:02:17;;;;;;;3.25;0.65;;;11.80;99.90;;;;;;4740608;30;20147;-86
2023/10/21 03:04:44;;;;;;;1.55;0.75;;;11.80;99.90;;;;;;4763390;30;20138;-78
2023/10/21 03:07:12;;;;;;;1.55;0.65;;;11.80;99.90;;;;;;4767490;30;20063;-78
2023/10/21 03:09:40;;;;;;;1.73;1.10;;;11.90;99.90;;;;;;4756978;30;20048;-78
2023/10/21 03:12:07;;;;;;;2.55;0.93;;;11.90;99.90;;;;;;4744065;30;20044;-78
2023/10/21 03:14:34;;;;;;;1.83;0.75;;;11.90;99.90;;;;;;4761618;30;20056;-78
2023/10/21 03:17:03;;;;;;;1.88;0.82;;;11.90;99.90;;;;;;4756008;30;20412;-78
2023/10/21 03:19:30;;;;;;;1.85;0.98;;;11.90;99.90;;;;;;4762877;30;20062;-78
2023/10/21 03:21:58;;;;;;;1.58;0.60;;;11.90;99.90;;;;;;4755717;30;20056;-78
2023/10/21 03:24:25;;;;;;;2.00;0.82;;;11.90;99.90;;;;;;4760215;30;20054;-78
2023/10/21 03:26:51;;;;;;;2.00;0.70;;;11.90;99.90;;;;;;4758967;30;20048;-78
2023/10/21 03:29:19;;;;;;;1.40;0.50;;;11.90;99.90;;;;;;4765592;30;20131;-78
2023/10/21 03:31:46;;;;;;;0.85;0.40;;;11.90;99.90;;;;;;4769001;30;20051;-78
2023/10/21 03:34:13;;;;;;;1.63;0.60;;;11.90;99.90;;;;;;4759257;30;20056;-78
2023/10/21 03:36:40;;;;;;;1.50;0.60;;;11.90;99.90;;;;;;4743833;30;20083;-78
2023/10/21 03:39:07;;;;;;;1.35;0.63;;;11.90;99.90;;;;;;4738005;30;20583;-78
2023/10/21 03:41:34;;;;;;;1.77;0.60;;;11.90;99.90;;;;;;4745188;30;20076;-78
2023/10/21 03:44:03;;;;;;;1.70;0.60;;;11.90;99.90;;;;;;4735648;30;20053;-78
2023/10/21 03:46:31;;;;;;;1.20;0.70;;;11.90;99.90;;;;;;4767269;30;20056;-78
2023/10/21 03:48:58;;;;;;;1.15;0.40;;;12.00;99.90;;;;;;4763146;30;20236;-86
2023/10/21 03:51:25;;;;;;;2.50;0.82;;;11.90;99.90;;;;;;4742269;30;20056;-86
2023/10/21 03:53:52;;;;;;;1.20;0.68;;;11.90;99.90;;;;;;4771503;30;20052;-85
2023/10/21 03:56:19;;;;;;;1.08;0.40;;;11.90;99.90;;;;;;4741184;30;20056;-85
2023/10/21 03:58:46;;;;;;;1.00;0.43;;;11.90;99.90;;;;;;4762535;30;20057;-85
2023/10/21 04:01:13;;;;;;;1.15;0.52;;;11.90;99.90;;;;;;4763677;30;20077;-86
2023/10/21 04:03:40;;;;;;;3.05;1.10;;;11.90;99.90;;;;;;4756081;30;20084;-86
2023/10/21 04:06:11;;;;;;;1.38;0.60;;;11.90;99.90;;;;;;4729116;30;20143;-86
2023/10/21 04:08:39;;;;;;;1.75;0.88;;;11.90;99.90;;;;;;4749773;30;20129;-86
2023/10/21 04:11:06;;;;;;;1.33;0.55;;;11.80;99.90;;;;;;4730396;30;20059;-85
2023/10/21 04:13:33;;;;;;;1.27;0.52;;;11.80;99.90;;;;;;4766304;30;20497;-85
2023/10/21 04:16:00;;;;;;;1.40;0.68;;;11.80;99.90;;;;;;4770838;30;20044;-86
2023/10/21 04:18:28;;;;;;;1.17;0.52;;;11.70;99.90;;;;;;4754187;30;20052;-86
2023/10/21 04:20:55;;;;;;;0.93;0.50;;;11.70;99.90;;;;;;4764298;30;20091;-86
2023/10/21 04:23:22;;;;;;;1.63;0.80;;;11.70;99.90;;;;;;4764145;30;20056;-86
2023/10/21 04:25:49;;;;;;;1.27;0.60;;;11.70;99.90;;;;;;4755917;30;20532;-86
2023/10/21 04:28:16;;;;;;;0.88;0.40;;;11.60;99.90;;;;;;4765039;30;20052;-78
2023/10/21 04:30:45;;;;;;;1.38;0.60;;;11.60;99.90;;;;;;4764982;30;20044;-78
2023/10/21 04:33:12;;;;;;;1.60;0.60;;;11.60;99.90;;;;;;4769540;30;20141;-78
2023/10/21 04:35:39;;;;;;;1.80;0.70;;;11.60;99.90;;;;;;4752997;30;20056;-78
2023/10/21 04:38:10;;;;;;;2.42;0.55;;;11.60;99.90;;;;;;4753872;30;20047;-78
2023/10/21 04:40:37;;;;;;;1.27;0.60;;;11.60;99.90;;;;;;4766927;30;20056;-78
2023/10/21 04:43:04;;;;;;;2.53;0.40;;;11.60;99.90;;;;;;4769970;30;20154;-78
2023/10/21 04:45:31;;;;;;;3.00;0.70;;;11.50;99.90;;;;;;4769484;30;20058;-78
2023/10/21 04:47:58;;;;;;;1.67;0.52;;;11.60;99.90;;;;;;4768029;30;20417;-77
2023/10/21 04:50:26;;;;;;;1.00;0.50;;;11.60;99.90;;;;;;4773451;30;20408;-78
2023/10/21 04:52:57;;;;;;;0.93;0.40;;;11.50;99.90;;;;;;4752164;30;20158;-78
2023/10/21 04:55:24;;;;;;;1.10;0.43;;;11.50;99.90;;;;;;4759569;30;20085;-78
2023/10/21 04:57:51;;;;;;;1.30;0.63;;;11.50;99.90;;;;;;4738591;30;20063;-78
2023/10/21 05:00:18;;;;;;;1.50;0.60;;;11.40;99.90;;;;;;4752587;30;20059;-78
2023/10/21 05:02:45;;;;;;;1.77;0.70;;;11.40;99.90;;;;;;4768729;30;20136;-78
2023/10/21 05:05:12;;;;;;;2.47;0.85;;;11.30;99.90;;;;;;4762922;30;20059;-78
2023/10/21 05:07:42;;;;;;;1.27;0.52;;;11.30;99.90;;;;;;4760206;30;20052;-77
2023/10/21 05:10:09;;;;;;;0.98;0.52;;;11.20;99.90;;;;;;4753772;30;20045;-78
2023/10/21 05:12:36;;;;;;;1.25;0.75;;;11.10;99.90;;;;;;4774033;29;20052;-78
2023/10/21 05:15:04;;;;;;;1.35;0.73;;;11.10;99.90;;;;;;4723621;30;20561;-77
2023/10/21 05:17:31;;;;;;;1.42;0.63;;;11.10;99.90;;;;;;4724922;30;20057;-78
2023/10/21 05:20:01;;;;;;;1.40;0.60;;;11.00;99.90;;;;;;4728147;30;20068;-78
2023/10/21 05:22:28;;;;;;;2.42;0.60;;;11.10;99.90;;;;;;4713922;30;20059;-78
2023/10/21 05:24:55;;;;;;;2.67;0.50;;;11.00;99.90;;;;;;4740323;30;20052;-78
2023/10/21 05:27:22;;;;;;;2.85;0.80;;;11.00;99.90;;;;;;4749485;30;20045;-78
2023/10/21 05:29:50;;;;;;;1.30;0.70;;;11.10;99.90;;;;;;4742292;30;20459;-78
2023/10/21 05:32:17;;;;;;;2.42;0.60;;;11.10;99.90;;;;;;4706984;30;20409;-78
2023/10/21 05:34:44;;;;;;;4.10;0.98;;;11.10;99.90;;;;;;4726223;30;20148;-78
2023/10/21 05:37:11;;;;;;;1.15;0.60;;;11.10;99.90;;;;;;4715636;30;20059;-78
2023/10/21 05:39:38;;;;;;;1.33;0.50;;;11.10;99.90;;;;;;4743947;30;20056;-77
2023/10/21 05:42:05;;;;;;;1.15;0.52;;;11.10;99.90;;;;;;4725667;30;20057;-78
2023/10/21 05:44:33;;;;;;;1.58;0.63;;;11.10;99.90;;;;;;4709267;30;20062;-78
2023/10/21 05:47:14;;;;;;;1.73;0.70;;;11.10;99.90;;;;;;4756018;30;20110;-77
2023/10/21 05:49:41;;;;;;;3.35;0.57;;;11.10;99.90;;;;;;4734644;30;20112;-77
2023/10/21 05:52:08;;;;;;;1.50;0.60;;;11.10;99.90;;;;;;4712080;30;20060;-77
2023/10/21 05:54:35;;;;;;;1.58;0.85;;;11.10;99.90;;;;;;4730377;30;20057;-77
2023/10/21 05:57:02;;;;;;;1.73;0.50;;;11.10;99.90;;;;;;4734808;30;20410;-77
2023/10/21 05:59:30;;;;;;;2.00;0.65;;;11.20;99.90;;;;;;4739794;30;20395;-78
2023/10/21 06:01:57;;;;;;;1.13;0.45;;;11.20;99.90;;;;;;4721091;30;20067;-78
2023/10/21 06:04:24;;;;;;;1.05;0.50;;;11.20;99.90;;;;;;4738451;30;20513;-77
2023/10/21 06:06:54;;;;;;;1.13;0.50;;;11.20;99.90;;;;;;4739489;30;20387;-77
2023/10/21 06:09:24;;;;;;;1.80;1.10;;;11.10;99.90;;;;;;4742062;30;20920;-77
2023/10/21 06:11:52;;;;;;;1.17;0.50;;;11.10;99.90;;;;;;4730890;30;20052;-77
2023/10/21 06:14:19;;;;;;;1.17;0.50;;;11.10;99.90;;;;;;4741609;30;20060;-78
2023/10/21 06:16:47;;;;;;;1.35;0.65;;;11.00;99.90;;;;;;4734494;30;20053;-78
2023/10/21 06:19:16;;;;;;;0.50;0.30;;;11.00;99.90;;;;;;4730929;30;20049;-86
2023/10/21 06:21:43;;;;;;;1.23;0.50;;;11.00;99.90;;;;;;4743471;30;20137;-86
2023/10/21 06:24:10;;;;;;;1.13;0.63;;;11.00;99.90;;;;;;4759988;30;20037;-86
2023/10/21 06:26:37;;;;;;;1.50;0.52;;;11.00;99.90;;;;;;4719725;30;20518;-86
2023/10/21 06:29:04;;;;;;;1.30;0.70;;;11.00;99.90;;;;;;4738354;30;20518;-86
2023/10/21 06:31:32;;;;;;;0.90;0.40;;;11.10;99.90;;;;;;4746698;30;20048;-86
2023/10/21 06:33:59;;;;;;;1.45;0.40;;;11.20;99.90;;;;;;4743874;30;20052;-86
2023/10/21 06:36:27;;;;;;;0.85;0.40;;;11.20;99.90;;;;;;4740160;30;20413;-86
2023/10/21 06:38:54;;;;;;;1.05;0.40;;;11.20;99.90;;;;;;4737717;30;20131;-86
2023/10/21 06:41:22;;;;;;;0.75;0.40;;;11.10;99.90;;;;;;4727566;30;20068;-86
2023/10/21 06:43:51;;;;;;;1.05;0.50;;;11.10;99.90;;;;;;4746504;30;20053;-86
2023/10/21 06:46:19;;;;;;;0.70;0.38;;;11.10;99.90;;;;;;4745536;30;20052;-86
2023/10/21 06:48:46;;;;;;;0.95;0.60;;;11.10;99.90;;;;;;4732266;30;20049;-85
2023/10/21 06:51:13;;;;;;;0.85;0.40;;;11.00;99.90;;;;;;4739016;30;20477;-85
2023/10/21 06:53:46;;;;;;;0.80;0.40;;;11.00;99.90;;;;;;4716326;30;20124;-86
2023/10/21 06:56:13;;;;;;;0.80;0.30;;;11.00;99.90;;;;;;4733417;30;20049;-85
2023/10/21 06:58:40;;;;;;;1.02;0.50;;;11.00;99.90;;;;;;4722240;30;20052;-86
2023/10/21 07:01:08;;;;;;;0.60;0.30;;;11.00;99.90;;;;;;4736773;30;20606;-77
2023/10/21 07:03:36;;;;;;;0.82;0.30;;;11.00;99.90;;;;;;4723825;30;20425;-78
2023/10/21 07:06:04;;;;;;;0.90;0.40;;;11.10;99.90;;;;;;4741588;30;20540;-77
2023/10/21 07:08:33;;;;;;;2.78;0.70;;;11.10;99.90;;;;;;4735602;30;20053;-77
2023/10/21 07:11:00;;;;;;;0.90;0.50;;;11.20;99.90;;;;;;4713654;30;20057;-81
2023/10/21 07:13:27;;;;;;;1.25;0.60;;;11.40;99.90;;;;;;4745081;30;20056;-78
2023/10/21 07:15:54;;;;;;;1.88;0.60;;;11.50;99.90;;;;;;4748650;30;20089;-79
2023/10/21 07:18:22;;;;;;;1.25;0.52;;;11.60;99.90;;;;;;4737233;30;20128;-78
2023/10/21 07:20:56;;;;;;;1.25;0.50;;;11.70;99.90;;;;;;4724077;30;20407;-77
2023/10/21 07:23:24;;;;;;;1.35;0.55;;;11.80;99.90;;;;;;4724492;30;20056;-78
2023/10/21 07:25:53;;;;;;;0.98;0.40;;;11.90;99.90;;;;;;4740311;30;20053;-77
2023/10/21 07:28:20;;;;;;;1.60;0.70;;;12.00;99.90;;;;;;4720260;30;20460;-79
2023/10/21 07:30:47;;;;;;;1.70;0.60;;;12.00;99.90;;;;;;4744006;30;20059;-79
2023/10/21 07:33:14;;;;;;;1.95;0.68;;;12.10;99.90;;;;;;4721311;30;20418;-78
2023/10/21 07:35:42;;;;;;;2.05;1.10;;;12.20;99.90;;;;;;4737628;30;20052;-79
2023/10/21 07:38:09;;;;;;;3.03;0.70;;;12.30;99.90;;;;;;4735847;30;20426;-79
2023/10/21 07:40:36;;;;;;;2.88;1.00;;;12.40;99.90;;;;;;4726032;30;20053;-79
2023/10/21 07:43:03;;;;;;;2.67;0.80;;;12.40;99.90;;;;;;4723355;30;20049;-79
2023/10/21 07:45:30;;;;;;;2.53;0.98;;;12.50;99.90;;;;;;4727788;30;20057;-78
2023/10/21 07:47:57;;;;;;;2.17;0.68;;;12.50;99.90;;;;;;4719400;30;20048;-78
2023/10/21 07:50:25;;;;;;;2.78;1.05;;;12.60;99.90;;;;;;4728978;30;20056;-78
2023/10/21 07:52:53;;;;;;;2.85;1.08;;;12.60;99.90;;;;;;4744783;30;20056;-80
2023/10/21 07:55:20;;;;;;;1.75;1.02;;;12.70;99.90;;;;;;4732986;30;20045;-86
2023/10/21 07:57:47;;;;;;;2.35;1.05;;;12.70;99.90;;;;;;4726089;30;20057;-87
2023/10/21 08:00:15;;;;;;;1.73;0.80;;;12.70;99.90;;;;;;4755216;30;20415;-86
2023/10/21 08:02:42;;;;;;;6.13;0.85;;;12.80;99.90;;;;;;4747531;30;20111;-86
2023/10/21 08:05:10;;;;;;;2.33;1.00;;;12.80;99.90;;;;;;4743963;30;20064;-86
2023/10/21 08:07:37;;;;;;;1.70;0.75;;;12.90;99.90;;;;;;4742555;30;20049;-87
2023/10/21 08:10:05;;;;;;;2.58;0.90;;;13.00;99.90;;;;;;4736819;30;20392;-86
2023/10/21 08:12:32;;;;;;;2.83;0.90;;;13.00;99.90;;;;;;4731871;30;20056;-85
2023/10/21 08:15:05;;;;;;;1.60;0.85;;;13.00;99.90;;;;;;4741421;30;20092;-87
2023/10/21 08:17:32;;;;;;;2.30;0.55;;;13.00;99.90;;;;;;4765146;30;20094;-87
2023/10/21 08:19:59;;;;;;;2.35;0.63;;;13.00;99.90;;;;;;4741130;30;20098;-88
2023/10/21 08:22:27;;;;;;;2.00;1.00;;;13.00;99.90;;;;;;4737096;30;20060;-88
2023/10/21 08:24:54;;;;;;;3.80;1.48;;;13.10;99.90;;;;;;4736339;30;20160;-88
2023/10/21 08:27:21;;;;;;;2.97;1.08;;;13.10;99.90;;;;;;4736251;30;20502;-88
2023/10/21 08:29:50;;;;;;;3.53;0.80;;;13.20;99.90;;;;;;4754228;30;20048;-88
2023/10/21 08:32:17;;;;;;;1.73;0.80;;;13.20;99.90;;;;;;4751567;30;20052;-86
2023/10/21 08:34:45;;;;;;;2.35;0.75;;;13.20;99.90;;;;;;4763401;30;20069;-89
2023/10/21 08:37:15;;;;;;;1.50;0.60;;;13.20;99.90;;;;;;4766647;30;20056;-85
2023/10/21 08:39:48;;;;;;;3.50;0.80;;;13.20;99.90;;;;;;4734884;30;20140;-88
2023/10/21 08:42:18;;;;;;;1.85;0.50;;;13.30;99.90;;;;;;4759098;30;20052;-87
2023/10/21 08:44:46;;;;;;;1.52;0.40;;;13.40;99.90;;;;;;4741412;30;20053;-89
2023/10/21 08:47:18;;;;;;;1.80;0.50;;;13.50;99.90;;;;;;4770486;30;20101;-88
2023/10/21 08:49:46;;;;;;;0.88;0.50;;;13.60;99.90;;;;;;4770219;30;20545;-87
2023/10/21 08:52:18;;;;;;;1.08;0.40;;;13.70;99.90;;;;;;4762409;30;20110;-82
2023/10/21 08:54:48;;;;;;;1.13;0.60;;;13.70;99.90;;;;;;4753495;30;20060;-89
2023/10/21 08:57:16;;;;;;;0.90;0.35;;;13.60;99.90;;;;;;4774617;29;20078;-89
2023/10/21 08:59:44;;;;;;;2.17;0.30;;;13.50;99.90;;;;;;4755506;30;20138;-89
2023/10/21 09:02:11;;;;;;;0.45;0.30;;;13.40;99.90;;;;;;4746824;30;20044;-83
2023/10/21 09:04:38;;;;;;;1.05;0.20;;;13.30;99.90;;;;;;4735290;30;20195;-89
2023/10/21 09:07:05;;;;;;;0.40;0.30;;;13.30;99.90;;;;;;4741710;30;20056;-88
2023/10/21 09:09:32;;;;;;;1.23;0.28;;;13.20;99.90;;;;;;4741761;30;20051;-89
2023/10/21 09:12:11;;;;;;;1.67;0.40;;;13.20;99.90;;;;;;4725439;30;20053;-84
2023/10/21 09:14:52;;;;;;;0.80;0.30;;;13.20;99.90;;;;;;4760037;30;20060;-86
2023/10/21 09:17:22;;;;;;;1.08;0.40;;;13.20;99.90;;;;;;4782604;29;20059;-89
2023/10/21 09:19:52;;;;;;;0.75;0.40;;;13.20;99.90;;;;;;4759410;30;20406;-86
2023/10/21 09:22:27;;;;;;;1.05;0.30;;;13.30;99.90;;;;;;4733630;30;20502;-86
2023/10/21 09:25:17;;;;;;;0.73;0.30;;;13.40;99.90;;;;;;4760190;30;20151;-90
2023/10/21 09:27:53;;;;;;;1.45;0.20;;;13.50;99.90;;;;;;4746247;30;20059;-85
2023/10/21 09:30:22;;;;;;;1.33;0.30;;;13.60;99.90;;;;;;4761578;30;20056;-87
2023/10/21 09:32:49;;;;;;;0.80;0.40;;;13.80;99.90;;;;;;4749206;30;20085;-92
2023/10/21 09:35:27;;;;;;;4.05;0.45;;;13.90;99.90;;;;;;4755384;30;20048;-87
2023/10/21 09:37:54;;;;;;;2.55;0.40;;;13.90;99.90;;;;;;4751503;30;20494;-87
2023/10/21 09:40:24;;;;;;;0.75;0.30;;;13.90;99.90;;;;;;4733299;30;20495;-84
2023/10/21 09:42:55;;;;;;;0.75;0.30;;;13.90;99.90;;;;;;4758618;30;20129;-86
2023/10/21 09:45:24;;;;;;;1.52;0.30;;;14.00;99.90;;;;;;4737019;30;20421;-85
2023/10/21 09:47:55;;;;;;;0.30;0.20;;;14.00;99.90;;;;;;4753767;30;20048;-85
2023/10/21 09:50:24;;;;;;;1.45;0.20;;;14.00;99.90;;;;;;4753389;30;20079;-85
2023/10/21 09:52:58;;;;;;;1.15;0.30;;;14.00;99.90;;;;;;4767486;30;20135;-85
2023/10/21 09:55:25;;;;;;;0.85;0.20;;;14.00;99.90;;;;;;4754499;30;20490;-84
2023/10/21 09:57:54;;;;;;;2.38;0.40;;;14.00;99.90;;;;;;4754974;30;20079;-84
2023/10/21 10:00:24;;;;;;;0.95;0.40;;;14.00;99.90;;;;;;4756595;30;20044;-88
2023/10/21 10:02:54;;;;;;;1.08;0.20;;;14.10;99.90;;;;;;4769814;30;20044;-88
2023/10/21 10:05:22;;;;;;;0.65;0.10;;;14.10;99.90;;;;;;4765498;30;20060;-88
2023/10/21 10:07:50;;;;;;;2.95;0.50;;;14.10;99.90;;;;;;4742890;30;20053;-82
2023/10/21 10:10:21;;;;;;;0.77;0.20;;;14.10;99.90;;;;;;4766276;30;20044;-85
2023/10/21 10:12:55;;;;;;;2.60;0.17;;;14.10;99.90;;;;;;4753397;30;20076;-85
2023/10/21 10:15:33;;;;;;;0.75;0.20;;;14.10;99.90;;;;;;4757916;30;20047;-85
2023/10/21 10:18:08;;;;;;;1.10;0.10;;;14.20;99.90;;;;;;4742552;30;20106;-83
2023/10/21 10:20:50;;;;;;;0.80;0.20;;;14.20;99.90;;;;;;4768306;30;20134;-81
2023/10/21 10:23:24;;;;;;;0.63;0.30;;;14.30;99.90;;;;;;4761212;30;20150;-86
2023/10/21 10:25:57;;;;;;;1.30;0.20;;;14.30;99.50;;;;;;4747757;30;20339;-87
2023/10/21 10:28:26;;;;;;;1.25;0.30;;;14.40;99.60;;;;;;4748511;30;20055;-83
2023/10/21 10:30:56;;;;;;;1.35;0.35;;;14.40;99.30;;;;;;4769438;30;20085;-84
2023/10/21 10:33:35;;;;;;;3.30;0.20;;;14.50;99.20;;;;;;4744347;30;20051;-85
2023/10/21 10:36:12;;;;;;;1.08;0.50;;;14.60;99.00;;;;;;4740612;30;20052;-83
2023/10/21 10:38:47;;;;;;;0.90;0.32;;;14.60;98.90;;;;;;4752376;30;20056;-86
2023/10/21 10:41:18;;;;;;;0.80;0.30;;;14.70;98.80;;;;;;4775940;29;20039;-88
2023/10/21 10:43:46;;;;;;;3.65;0.55;;;14.80;98.80;;;;;;4760070;30;20059;-85
2023/10/21 10:46:20;;;;;;;2.28;0.32;;;14.80;98.00;;;;;;4755080;30;20063;-86
2023/10/21 10:48:51;;;;;;;1.40;0.28;;;14.90;98.10;;;;;;4748710;30;20118;-89
2023/10/21 10:51:23;;;;;;;2.67;0.28;;;14.90;97.90;;;;;;4749745;30;20056;-86
2023/10/21 10:53:58;;;;;;;1.90;0.80;;;15.00;97.70;;;;;;4751428;30;20056;-87
2023/10/21 10:56:46;;;;;;;2.60;0.30;;;15.00;97.40;;;;;;4739434;30;20049;-90
2023/10/21 10:59:16;;;;;;;0.57;0.30;;;15.00;97.20;;;;;;4754547;30;20084;-89
2023/10/21 11:01:45;;;;;;;3.97;0.40;;;14.90;97.40;;;;;;4728077;30;20052;-86
2023/10/21 11:04:14;;;;;;;2.70;0.30;;;14.80;97.20;;;;;;4746533;30;20056;-87
2023/10/21 11:06:45;;;;;;;1.15;0.40;;;14.80;97.20;;;;;;4737823;30;20052;-89
2023/10/21 11:09:20;;;;;;;1.02;0.20;;;14.80;97.00;;;;;;4755833;30;20048;-85
2023/10/21 11:11:50;;;;;;;4.50;0.95;;;14.90;97.00;;;;;;4758623;30;20056;-85
2023/10/21 11:14:41;;;;;;;1.10;0.38;;;14.90;96.50;;;;;;4763268;30;20059;-81
2023/10/21 11:17:10;;;;;;;1.88;0.40;;;14.90;96.60;;;;;;4753607;30;20059;-82
2023/10/21 11:19:40;;;;;;;1.83;0.30;;;14.90;96.80;;;;;;4764688;30;20060;-81
2023/10/21 11:22:25;;;;;;;1.48;0.30;;;14.90;96.70;;;;;;4758118;30;20081;-83
2023/10/21 11:24:56;;;;;;;1.08;0.30;;;14.90;96.80;;;;;;4758756;30;20387;-81
2023/10/21 11:27:26;;;;;;;0.43;0.20;;;14.90;96.60;;;;;;4737076;30;20482;-85
2023/10/21 11:29:54;;;;;;;1.37;0.20;;;14.90;96.60;;;;;;4769164;30;20055;-89
2023/10/21 11:32:30;;;;;;;1.90;0.20;;;14.90;96.50;;;;;;4772608;30;20052;-86
2023/10/21 11:35:02;;;;;;;2.13;0.20;;;15.00;96.70;;;;;;4772245;30;20578;-86
2023/10/21 11:37:30;;;;;;;2.50;0.30;;;15.20;96.50;;;;;;4753800;30;20080;-87
2023/10/21 11:39:58;;;;;;;2.38;0.28;;;15.20;96.40;;;;;;4754992;30;20404;-84
2023/10/21 11:42:25;;;;;;;2.35;0.38;;;15.30;96.20;;;;;;4722552;30;20052;-88
2023/10/21 11:45:03;;;;;;;1.63;0.30;;;15.40;96.20;;;;;;4739305;30;20056;-86
2023/10/21 11:47:32;;;;;;;2.40;0.30;;;15.40;95.20;;;;;;4771674;30;20047;-83
2023/10/21 11:50:03;;;;;;;1.67;0.30;;;15.40;95.50;;;;;;4722340;30;20053;-86
2023/10/21 11:52:32;;;;;;;2.17;0.20;;;15.40;95.00;;;;;;4753992;30;20148;-84
2023/10/21 12:33:57;;;;;;;2.70;0.20;;;15.80;93.70;;;;;;4756405;30;20062;-82
2023/10/21 12:36:35;;;;;;;1.90;0.20;;;15.80;93.60;;;;;;4731732;30;20057;-83
2023/10/21 12:41:51;;;;;;;2.47;0.20;;;15.90;93.00;;;;;;4722846;30;20041;-85
2023/10/21 12:44:37;;;;;;;1.67;0.20;;;15.90;92.70;;;;;;4728222;30;20391;-81
2023/10/21 12:47:05;;;;;;;0.63;0.10;;;15.90;92.90;;;;;;4747293;30;20068;-81
2023/10/21 12:49:33;;;;;;;3.05;0.20;;;16.00;93.10;;;;;;4725730;30;20106;-83
2023/10/21 12:52:10;;;;;;;1.08;0.20;;;16.00;93.00;;;;;;4740653;30;20049;-88
2023/10/21 12:54:38;;;;;;;2.85;0.20;;;16.00;93.10;;;;;;4707359;30;20088;-84
2023/10/21 12:57:07;;;;;;;1.10;0.10;;;15.90;93.10;;;;;;4734605;30;20059;-84
2023/10/21 12:59:35;;;;;;;1.55;0.20;;;15.80;93.40;;;;;;4743135;30;20564;-83
2023/10/21 13:02:07;;;;;;;0.50;0.10;;;15.70;93.60;;;;;;4733470;30;20498;-84
2023/10/21 13:04:40;;;;;;;1.15;0.22;;;15.60;93.80;;;;;;4728712;30;20152;-82
2023/10/21 13:07:22;;;;;;;1.15;0.22;;;15.70;93.70;;;;;;4711183;30;20052;-84
2023/10/21 13:09:50;;;;;;;1.70;0.20;;;15.70;93.60;;;;;;4737298;30;20075;-82
2023/10/21 13:12:17;;;;;;;1.77;0.10;;;15.80;93.40;;;;;;4734210;30;20064;-84
2023/10/21 13:14:44;;;;;;;2.33;0.30;;;15.90;93.30;;;;;;4753502;30;20119;-84
2023/10/21 13:17:12;;;;;;;1.60;0.28;;;15.90;92.90;;;;;;4766279;30;20084;-86
2023/10/21 13:19:39;;;;;;;2.60;0.20;;;15.80;93.10;;;;;;4747317;30;20418;-90
2023/10/21 13:22:06;;;;;;;2.55;0.20;;;15.70;92.80;;;;;;4752703;30;20121;-81
2023/10/21 13:24:34;;;;;;;2.70;0.20;;;15.60;93.10;;;;;;4761327;29;20052;-83
2023/10/21 13:27:04;;;;;;;2.83;0.30;;;15.60;92.80;;;;;;4724865;30;20052;-84
2023/10/21 13:29:32;;;;;;;2.00;0.20;;;15.60;93.00;;;;;;4751695;30;20493;-85
2023/10/21 13:32:00;;;;;;;2.55;0.38;;;15.60;93.20;;;;;;4753981;30;20143;-84
2023/10/21 13:34:27;;;;;;;2.13;0.50;;;15.70;92.60;;;;;;4735638;30;20050;-85
2023/10/21 13:36:56;;;;;;;2.08;0.20;;;15.70;92.70;;;;;;4757405;30;20050;-85
2023/10/21 13:39:28;;;;;;;3.05;0.30;;;15.60;92.80;;;;;;4750121;30;20118;-89